createdAt,value
2018-10-18T00:02:23.830Z,98720.72
2018-10-18T00:07:18.572Z,98706.98
2018-10-18T00:12:15.245Z,98700.55
2018-10-18T00:17:14.261Z,98692.50
2018-10-18T00:22:13.640Z,98692.44
2018-10-18T00:27:11.046Z,98690.27
2018-10-18T00:32:06.082Z,98676.88
2018-10-18T00:47:06.159Z,98654.23
2018-10-18T00:52:02.197Z,98653.93
2018-10-18T00:56:58.643Z,98641.59
2018-10-18T01:01:53.340Z,98626.81
2018-10-18T01:06:50.113Z,98617.70
2018-10-18T01:11:45.447Z,98633.23
2018-10-18T01:16:41.717Z,98637.70
2018-10-18T01:21:36.905Z,98633.09
2018-10-18T01:26:31.652Z,98642.59
2018-10-18T01:31:25.893Z,98650.66
2018-10-18T01:36:21.449Z,98661.17
2018-10-18T01:41:17.379Z,98676.91
2018-10-18T01:46:18.037Z,98688.88
2018-10-18T01:51:14.323Z,98689.41
2018-10-18T01:56:08.727Z,98683.64
2018-10-18T02:01:03.619Z,98692.06
2018-10-18T02:05:59.685Z,98694.91
2018-10-18T02:10:55.609Z,98700.63
2018-10-18T02:15:48.905Z,98705.34
2018-10-18T02:20:52.352Z,98681.32
2018-10-18T02:25:49.397Z,98669.30
2018-10-18T02:30:46.160Z,98664.52
2018-10-18T02:35:44.179Z,98628.56
2018-10-18T02:40:43.517Z,98627.40
2018-10-18T02:45:41.308Z,98636.30
2018-10-18T02:50:36.597Z,98635.68
2018-10-18T02:55:31.822Z,98616.95
2018-10-18T03:00:28.628Z,98597.95
2018-10-18T03:10:25.386Z,98602.00
2018-10-18T03:15:18.599Z,98609.39
2018-10-18T03:20:17.756Z,98617.95
2018-10-18T03:25:11.138Z,98611.13
2018-10-18T03:30:04.784Z,98627.30
2018-10-18T03:34:57.959Z,98627.98
2018-10-18T03:39:51.183Z,98634.20
2018-10-18T03:44:44.559Z,98630.01
2018-10-18T03:49:37.954Z,98649.43
2018-10-18T03:54:31.291Z,98650.42
2018-10-18T03:59:24.545Z,98654.59
2018-10-18T04:04:17.866Z,98651.32
2018-10-18T04:09:11.048Z,98657.95
2018-10-18T04:14:04.411Z,98656.25
2018-10-18T04:18:57.768Z,98640.80
2018-10-18T04:23:51.239Z,98640.14
2018-10-18T04:28:44.615Z,98636.78
2018-10-18T04:33:37.893Z,98631.73
2018-10-18T04:38:31.124Z,98632.80
2018-10-18T04:43:24.461Z,98644.52
2018-10-18T04:48:19.963Z,98649.00
2018-10-18T04:53:13.125Z,98653.64
2018-10-18T04:58:06.549Z,98653.63
2018-10-18T05:02:59.851Z,98652.39
2018-10-18T05:07:53.085Z,98662.52
2018-10-18T05:12:46.734Z,98659.39
2018-10-18T05:17:39.976Z,98657.19
2018-10-18T05:22:33.363Z,98668.66
2018-10-18T05:27:26.776Z,98675.41
2018-10-18T05:32:20.296Z,98675.54
2018-10-18T05:37:13.629Z,98674.95
2018-10-18T05:42:06.925Z,98682.20
2018-10-18T05:47:00.147Z,98692.64
2018-10-18T05:51:53.335Z,98691.95
2018-10-18T05:56:46.648Z,98692.06
2018-10-18T06:01:39.846Z,98695.59
2018-10-18T06:06:33.185Z,98702.34
2018-10-18T06:11:31.035Z,98712.03
2018-10-18T06:16:25.452Z,98709.18
2018-10-18T06:21:18.676Z,98719.36
2018-10-18T06:26:12.109Z,98720.94
2018-10-18T06:31:05.665Z,98716.31
2018-10-18T06:35:59.068Z,98708.66
2018-10-18T06:40:52.362Z,98705.39
2018-10-18T06:45:45.677Z,98716.32
2018-10-18T06:50:39.948Z,98725.81
2018-10-18T06:55:33.157Z,98721.63
2018-10-18T07:00:26.479Z,98717.85
2018-10-18T07:05:19.759Z,98721.73
2018-10-18T07:10:13.229Z,98719.84
2018-10-18T07:15:07.543Z,98731.73
2018-10-18T07:20:00.939Z,98729.80
2018-10-18T07:24:54.184Z,98731.36
2018-10-18T07:29:47.461Z,98721.63
2018-10-18T07:34:40.720Z,98724.55
2018-10-18T07:39:33.955Z,98722.64
2018-10-18T07:44:27.729Z,98721.14
2018-10-18T07:49:20.950Z,98716.23
2018-10-18T07:54:14.215Z,98709.61
2018-10-18T07:59:07.402Z,98719.59
2018-10-18T08:04:00.704Z,98723.94
2018-10-18T08:08:53.939Z,98722.41
2018-10-18T08:13:47.245Z,98730.10
2018-10-18T08:18:41.558Z,98718.41
2018-10-18T08:23:34.889Z,98713.30
2018-10-18T08:28:28.213Z,98723.15
2018-10-18T08:33:22.591Z,98715.70
2018-10-18T08:38:16.355Z,98723.28
2018-10-18T08:43:09.597Z,98723.56
2018-10-18T08:48:02.925Z,98719.58
2018-10-18T08:52:56.108Z,98721.37
2018-10-18T08:57:49.454Z,98709.33
2018-10-18T09:02:42.985Z,98698.59
2018-10-18T09:07:36.626Z,98690.52
2018-10-18T09:12:29.824Z,98684.74
2018-10-18T09:17:23.098Z,98674.65
2018-10-18T09:22:16.383Z,98674.64
2018-10-18T09:27:10.067Z,98672.31
2018-10-18T09:32:03.376Z,98667.09
2018-10-18T09:36:56.911Z,98656.28
2018-10-18T09:41:50.083Z,98646.59
2018-10-18T09:46:43.266Z,98642.92
2018-10-18T09:51:36.604Z,98628.64
2018-10-18T09:56:30.680Z,98626.30
2018-10-18T10:01:29.219Z,98621.84
2018-10-18T10:06:22.546Z,98615.95
2018-10-18T10:11:15.812Z,98605.65
2018-10-18T10:16:09.158Z,98598.76
2018-10-18T10:21:02.468Z,98588.22
2018-10-18T10:25:56.022Z,98590.95
2018-10-18T10:30:49.370Z,98576.80
2018-10-18T10:35:42.697Z,98572.40
2018-10-18T10:40:35.935Z,98562.95
2018-10-18T10:45:29.325Z,98566.23
2018-10-18T10:50:22.575Z,98557.97
2018-10-18T10:55:15.763Z,98557.52
2018-10-18T11:00:09.141Z,98556.95
2018-10-18T11:05:02.429Z,98554.38
2018-10-18T11:09:55.626Z,98549.80
2018-10-18T11:14:48.926Z,98552.14
2018-10-18T11:19:42.096Z,98544.01
2018-10-18T11:24:35.543Z,98548.72
2018-10-18T11:29:28.802Z,98543.97
2018-10-18T11:34:22.146Z,98535.94
2018-10-18T11:39:15.329Z,98534.44
2018-10-18T11:44:13.880Z,98528.39
2018-10-18T11:49:07.498Z,98532.97
2018-10-18T11:54:02.815Z,98521.97
2018-10-18T11:58:58.012Z,98521.30
2018-10-18T12:03:54.857Z,98518.33
2018-10-18T12:08:52.425Z,98510.39
2018-10-18T12:13:56.023Z,98497.94
2018-10-18T12:18:49.167Z,98492.89
2018-10-18T12:23:42.366Z,98492.17
2018-10-18T12:28:35.698Z,98490.18
2018-10-18T12:33:29.024Z,98491.09
2018-10-18T12:38:22.400Z,98487.58
2018-10-18T12:43:15.568Z,98473.72
2018-10-18T12:48:08.828Z,98473.44
2018-10-18T12:53:02.080Z,98468.76
2018-10-18T12:57:55.378Z,98475.36
2018-10-18T13:02:49.667Z,98465.22
2018-10-18T13:07:43.163Z,98468.30
2018-10-18T13:12:37.262Z,98457.98
2018-10-18T13:17:30.582Z,98465.36
2018-10-18T13:22:26.313Z,98463.88
2018-10-18T13:27:20.434Z,98457.92
2018-10-18T13:32:14.713Z,98453.00
2018-10-18T13:37:07.890Z,98450.30
2018-10-18T13:42:01.399Z,98450.84
2018-10-18T13:46:55.243Z,98454.37
2018-10-18T13:51:50.533Z,98456.63
